Decoded Metar for KTYR (TYLER in TX, USA) (IATA:TYR) | Meteo·Mobile Aviation Weather
aviador You're here:

KTYR Decoded Metar

TYLER in TX, USA
Report Time2019-04-23 07:53:00
UTC Time2019-04-23 08:02:29
Flight Rules vfr VFR
Wind170° at 06 kt
W.Decomp.*RWY 17: 6.0 kt HW 0.3 kt LCW
RWY 13: 4.8 kt HW 3.6 kt RCW
RWY 22: 3.6 kt HW 4.8 kt LCW
Visibility9999 m
Phenomena:N/A
Clouds:N/A
Expected CloudBase > 800 ft AGL from Temp-Dew spread
CeilingNone
Temp18°C (ISA +4)
Dew Point16°C (88% RH)
AAT17.8°C
QNH1017 hPa
Density Alt1,129 ft
Elevation541 ft
Report Wrong Elevation
Raw Report
METAR KTYR 230753Z AUTO 17006KT 10SM CLR 18/16 A3003 RMK AO2 SLP162
T01830156=

Extra information for KTYR:More info

Metar Taf Metar & Taf Last 4 Metars F.Rules Stats Wind Profile Meteogram Temp Stats Airport Information Weather charts Add Link Nearby VenuesMetar ALERT Operation Metar Decoded Social comments

AIRNAV info for KTYR